createdAt,value
2023-01-06T00:00:45.718Z,49.97
2023-01-06T00:01:52.051Z,50.83
2023-01-06T00:02:45.545Z,52.80
2023-01-06T00:03:45.536Z,55.29
2023-01-06T00:04:45.553Z,56.80
2023-01-06T00:05:45.502Z,55.70
2023-01-06T00:06:45.493Z,54.57
2023-01-06T00:07:45.500Z,54.39
2023-01-06T00:08:45.460Z,56.00
2023-01-06T00:09:45.453Z,56.15
2023-01-06T00:10:45.436Z,54.96
2023-01-06T00:11:45.432Z,55.15
2023-01-06T00:12:45.416Z,56.46
2023-01-06T00:13:45.423Z,57.51
2023-01-06T00:14:45.402Z,57.95
2023-01-06T00:15:45.443Z,58.11
2023-01-06T00:16:45.378Z,56.61
2023-01-06T00:17:45.356Z,55.70
2023-01-06T00:18:45.363Z,53.89
2023-01-06T00:19:45.333Z,52.33
2023-01-06T00:20:45.322Z,51.59
2023-01-06T00:21:45.308Z,50.67
2023-01-06T00:22:45.299Z,50.12
2023-01-06T00:23:45.299Z,49.50
2023-01-06T00:24:45.283Z,48.77
2023-01-06T00:25:45.273Z,48.63
2023-01-06T00:26:45.245Z,48.32
2023-01-06T00:27:45.236Z,47.96
2023-01-06T00:28:45.229Z,47.93
2023-01-06T00:29:45.211Z,48.09
2023-01-06T00:30:45.339Z,48.71
2023-01-06T00:31:45.205Z,49.38
2023-01-06T00:32:45.180Z,50.22
2023-01-06T00:33:45.190Z,50.86
2023-01-06T00:34:45.156Z,51.17
2023-01-06T00:35:45.142Z,51.17
2023-01-06T00:36:45.138Z,51.27
2023-01-06T00:37:45.109Z,50.89
2023-01-06T00:38:45.119Z,50.61
2023-01-06T00:39:45.089Z,49.97
2023-01-06T00:40:45.077Z,50.19
2023-01-06T00:41:45.061Z,51.24
2023-01-06T00:42:45.048Z,52.50
2023-01-06T00:43:45.064Z,52.47
2023-01-06T00:44:45.025Z,53.10
2023-01-06T00:45:45.042Z,53.72
2023-01-06T00:46:45.015Z,54.39
2023-01-06T00:47:45.012Z,54.32
2023-01-06T00:49:00.070Z,54.75
2023-01-06T00:49:45.007Z,55.51
2023-01-06T00:50:44.955Z,55.26
2023-01-06T00:51:44.943Z,55.51
2023-01-06T00:52:44.940Z,55.62
2023-01-06T00:53:44.939Z,54.57
2023-01-06T00:54:44.914Z,53.38
2023-01-06T00:55:44.901Z,52.60
2023-01-06T00:56:44.880Z,51.68
2023-01-06T00:57:44.867Z,51.94
2023-01-06T00:58:44.869Z,51.91
2023-01-06T00:59:44.864Z,51.75
2023-01-06T01:00:44.849Z,52.01
2023-01-06T01:01:44.952Z,52.47
2023-01-06T01:02:44.870Z,53.00
2023-01-06T01:03:44.800Z,53.55
2023-01-06T01:04:44.857Z,54.17
2023-01-06T01:05:44.797Z,54.67
2023-01-06T01:06:44.755Z,54.42
2023-01-06T01:07:44.759Z,53.58
2023-01-06T01:08:44.734Z,53.24
2023-01-06T01:09:44.741Z,52.40
2023-01-06T01:10:44.720Z,51.81
2023-01-06T01:11:44.722Z,51.75
2023-01-06T01:12:44.701Z,51.78
2023-01-06T01:13:44.774Z,51.21
2023-01-06T01:14:44.688Z,51.49
2023-01-06T01:15:44.694Z,51.24
2023-01-06T01:16:44.658Z,50.86
2023-01-06T01:17:44.636Z,50.19
2023-01-06T01:18:44.609Z,49.65
2023-01-06T01:19:44.625Z,48.63
2023-01-06T01:20:44.583Z,48.63
2023-01-06T01:21:44.585Z,49.23
2023-01-06T01:22:44.579Z,50.15
2023-01-06T01:23:44.571Z,51.59
2023-01-06T01:24:44.567Z,53.55
2023-01-06T01:25:44.527Z,54.42
2023-01-06T01:26:44.546Z,54.78
2023-01-06T01:27:44.516Z,54.67
2023-01-06T01:28:44.503Z,55.70
2023-01-06T01:29:44.492Z,56.08
2023-01-06T01:30:44.506Z,56.46
2023-01-06T01:31:44.459Z,56.61
2023-01-06T01:32:44.444Z,56.96
2023-01-06T01:33:44.448Z,56.53
2023-01-06T01:34:44.426Z,56.84
2023-01-06T01:35:44.437Z,56.84
2023-01-06T01:36:44.398Z,56.46
2023-01-06T01:37:44.392Z,55.85
2023-01-06T01:38:44.370Z,54.89
2023-01-06T01:39:44.393Z,53.76
2023-01-06T01:40:44.351Z,53.14
2023-01-06T01:41:44.347Z,53.17
2023-01-06T01:42:44.336Z,53.00
2023-01-06T01:43:44.329Z,53.10
2023-01-06T01:44:44.306Z,53.89
2023-01-06T01:45:44.312Z,55.78
2023-01-06T01:46:44.289Z,57.59
2023-01-06T01:47:44.292Z,60.22
2023-01-06T01:48:44.250Z,62.86
2023-01-06T01:49:44.266Z,63.92
2023-01-06T01:50:44.246Z,64.77
2023-01-06T01:51:44.247Z,66.75
2023-01-06T01:52:44.251Z,68.79
2023-01-06T01:53:44.185Z,70.48
2023-01-06T01:54:44.173Z,71.08
2023-01-06T01:55:44.168Z,71.89
2023-01-06T01:56:44.155Z,71.15
2023-01-06T01:57:44.150Z,70.42
2023-01-06T01:58:44.125Z,70.66
2023-01-06T01:59:44.110Z,69.25
2023-01-06T02:00:44.106Z,69.60
2023-01-06T02:01:44.212Z,69.02
2023-01-06T02:02:44.222Z,69.08
2023-01-06T02:03:44.069Z,68.56
2023-01-06T02:04:44.059Z,69.02
2023-01-06T02:05:44.056Z,67.18
2023-01-06T02:06:44.029Z,66.32
2023-01-06T02:07:44.025Z,65.33
2023-01-06T02:08:44.001Z,63.29
2023-01-06T02:09:43.991Z,62.20
2023-01-06T02:10:43.989Z,60.88
2023-01-06T02:11:44.008Z,60.44
2023-01-06T02:12:43.952Z,59.36
2023-01-06T02:13:43.959Z,59.57
2023-01-06T02:14:43.917Z,59.53
2023-01-06T02:15:43.973Z,59.79
2023-01-06T02:16:43.911Z,59.66
2023-01-06T02:17:43.907Z,59.19
2023-01-06T02:18:43.893Z,59.32
2023-01-06T02:19:43.864Z,59.40
2023-01-06T02:20:43.870Z,60.18
2023-01-06T02:21:43.861Z,62.02
2023-01-06T02:22:43.821Z,63.10
2023-01-06T02:23:43.809Z,64.02
2023-01-06T02:24:43.794Z,63.53
2023-01-06T02:25:43.782Z,63.29
2023-01-06T02:26:43.787Z,62.34
2023-01-06T02:27:43.760Z,61.92
2023-01-06T02:28:43.742Z,60.75
2023-01-06T02:29:43.735Z,59.70
2023-01-06T02:30:43.718Z,59.06
2023-01-06T02:31:43.705Z,58.61
2023-01-06T02:32:43.706Z,58.40
2023-01-06T02:33:43.675Z,58.24
2023-01-06T02:34:43.659Z,57.23
2023-01-06T02:35:43.656Z,58.24
2023-01-06T02:36:43.635Z,58.36
2023-01-06T02:37:43.632Z,58.65
2023-01-06T02:38:43.613Z,59.06
2023-01-06T02:39:43.607Z,59.70
2023-01-06T02:40:43.585Z,60.18
2023-01-06T02:41:43.580Z,61.24
2023-01-06T02:42:43.575Z,62.96
2023-01-06T02:43:43.569Z,65.02
2023-01-06T02:44:43.546Z,66.27
2023-01-06T02:45:43.535Z,68.11
2023-01-06T02:46:43.564Z,67.62
2023-01-06T02:47:43.512Z,67.18
2023-01-06T02:48:43.491Z,66.59
2023-01-06T02:49:43.485Z,65.80
2023-01-06T02:50:43.454Z,64.52
2023-01-06T02:51:43.445Z,64.97
2023-01-06T02:52:43.433Z,65.28
2023-01-06T02:53:43.434Z,65.02
2023-01-06T02:54:43.409Z,65.59
2023-01-06T02:55:43.403Z,65.28
2023-01-06T02:56:43.386Z,64.97
2023-01-06T02:57:43.377Z,65.43
2023-01-06T02:58:43.364Z,65.33
2023-01-06T02:59:43.351Z,67.07
2023-01-06T03:00:43.335Z,66.91
2023-01-06T03:01:43.439Z,65.85
2023-01-06T03:02:43.316Z,65.74
2023-01-06T03:03:43.313Z,66.32
2023-01-06T03:04:43.354Z,67.56
2023-01-06T03:05:43.283Z,65.90
2023-01-06T03:06:43.255Z,64.27
2023-01-06T03:07:43.250Z,61.97
2023-01-06T03:08:43.242Z,60.57
2023-01-06T03:09:43.221Z,59.70
2023-01-06T03:10:43.207Z,61.01
2023-01-06T03:11:43.198Z,61.92
2023-01-06T03:12:43.186Z,61.69
2023-01-06T03:13:43.193Z,60.75
2023-01-06T03:14:43.157Z,62.20
2023-01-06T03:15:43.232Z,61.79
2023-01-06T03:16:43.135Z,61.42
2023-01-06T03:17:43.120Z,61.38
2023-01-06T03:18:43.122Z,63.00
2023-01-06T03:19:43.097Z,64.42
2023-01-06T03:20:43.089Z,62.72
2023-01-06T03:21:43.071Z,61.28
2023-01-06T03:22:43.055Z,60.57
2023-01-06T03:23:43.052Z,60.18
2023-01-06T03:24:43.066Z,60.88
2023-01-06T03:25:43.034Z,61.10
2023-01-06T03:26:43.019Z,61.92
2023-01-06T03:27:42.993Z,64.27
2023-01-06T03:28:43.006Z,65.43
2023-01-06T03:29:42.976Z,66.00
2023-01-06T03:30:42.958Z,65.54
2023-01-06T03:31:43.024Z,65.38
2023-01-06T03:32:42.951Z,65.64
2023-01-06T03:33:42.925Z,66.64
2023-01-06T03:34:42.913Z,67.23
2023-01-06T03:35:42.901Z,69.60
2023-01-06T03:36:42.905Z,69.36
2023-01-06T03:37:42.893Z,70.54
2023-01-06T03:38:42.897Z,69.19
2023-01-06T03:39:42.863Z,70.01
2023-01-06T03:40:42.853Z,70.84
2023-01-06T03:41:42.828Z,72.26
2023-01-06T03:42:42.827Z,73.67
2023-01-06T03:43:42.817Z,75.13
2023-01-06T03:44:42.804Z,76.17
2023-01-06T03:45:42.767Z,78.76
2023-01-06T03:46:42.842Z,78.69
2023-01-06T03:47:42.810Z,78.91
2023-01-06T03:48:42.749Z,76.80
2023-01-06T03:49:42.729Z,75.27
2023-01-06T03:50:42.735Z,72.89
2023-01-06T03:51:42.703Z,69.89
2023-01-06T03:52:42.706Z,66.86
2023-01-06T03:53:42.673Z,65.64
2023-01-06T03:54:42.663Z,66.06
2023-01-06T03:55:42.660Z,65.18
2023-01-06T03:56:42.634Z,64.67
2023-01-06T03:57:42.638Z,62.62
2023-01-06T03:58:42.621Z,61.60
2023-01-06T03:59:42.609Z,60.93
2023-01-06T04:00:42.644Z,60.88
2023-01-06T04:01:42.605Z,64.02
2023-01-06T04:02:42.559Z,68.68
2023-01-06T04:03:42.614Z,71.08
2023-01-06T04:04:42.541Z,69.89
2023-01-06T04:05:42.545Z,68.39
2023-01-06T04:06:42.520Z,66.16
2023-01-06T04:07:42.495Z,66.00
2023-01-06T04:08:42.481Z,63.19
2023-01-06T04:09:42.495Z,61.24
2023-01-06T04:10:42.485Z,59.06
2023-01-06T04:11:42.467Z,59.96
2023-01-06T04:12:42.462Z,59.74
2023-01-06T04:13:42.412Z,60.44
2023-01-06T04:14:42.412Z,62.86
2023-01-06T04:15:42.413Z,63.10
2023-01-06T04:16:42.390Z,61.06
2023-01-06T04:17:42.359Z,59.74
2023-01-06T04:18:42.372Z,59.28
2023-01-06T04:19:42.372Z,59.96
2023-01-06T04:20:42.340Z,60.48
2023-01-06T04:21:42.341Z,60.18
2023-01-06T04:22:42.308Z,59.92
2023-01-06T04:23:42.301Z,59.53
2023-01-06T04:24:42.274Z,59.96
2023-01-06T04:25:44.841Z,59.66
2023-01-06T04:26:42.279Z,60.22
2023-01-06T04:27:42.269Z,61.74
2023-01-06T04:28:42.230Z,63.15
2023-01-06T04:29:42.217Z,63.39
2023-01-06T04:30:42.205Z,63.58
2023-01-06T04:31:42.239Z,61.79
2023-01-06T04:32:42.200Z,60.39
2023-01-06T04:33:42.164Z,58.61
2023-01-06T04:34:42.155Z,58.11
2023-01-06T04:35:42.164Z,57.27
2023-01-06T04:36:42.150Z,56.42
2023-01-06T04:37:42.113Z,56.61
2023-01-06T04:38:42.125Z,56.92
2023-01-06T04:39:42.099Z,57.99
2023-01-06T04:40:42.076Z,57.99
2023-01-06T04:41:42.073Z,58.48
2023-01-06T04:42:42.072Z,59.19
2023-01-06T04:43:42.053Z,58.94
2023-01-06T04:44:42.042Z,60.44
2023-01-06T04:45:42.045Z,61.01
2023-01-06T04:46:42.012Z,61.74
2023-01-06T04:47:41.983Z,61.74
2023-01-06T04:48:41.980Z,62.58
2023-01-06T04:49:41.968Z,65.90
2023-01-06T04:50:41.949Z,67.78
2023-01-06T04:51:41.945Z,69.25
2023-01-06T04:52:41.928Z,68.39
2023-01-06T04:53:41.908Z,70.07
2023-01-06T04:54:41.914Z,68.11
2023-01-06T04:55:41.892Z,71.39
2023-01-06T04:56:41.882Z,74.73
2023-01-06T04:57:41.857Z,74.59
2023-01-06T04:58:41.849Z,73.08
2023-01-06T04:59:41.850Z,70.60
2023-01-06T05:00:41.865Z,67.89
2023-01-06T05:01:41.925Z,67.02
2023-01-06T05:02:41.812Z,67.34
2023-01-06T05:03:41.892Z,67.02
2023-01-06T05:04:47.668Z,66.53
2023-01-06T05:05:41.772Z,65.64
2023-01-06T05:06:41.784Z,64.92
2023-01-06T05:07:41.726Z,63.97
2023-01-06T05:08:41.713Z,62.96
2023-01-06T05:09:41.713Z,63.00
2023-01-06T05:10:41.689Z,63.10
2023-01-06T05:11:41.677Z,62.67
2023-01-06T05:12:41.704Z,62.11
2023-01-06T05:13:41.659Z,61.38
2023-01-06T05:14:41.651Z,60.88
2023-01-06T05:15:41.625Z,60.13
2023-01-06T05:16:41.673Z,60.09
2023-01-06T05:17:41.620Z,60.31
2023-01-06T05:18:41.597Z,60.66
2023-01-06T05:19:41.570Z,60.66
2023-01-06T05:20:41.564Z,59.87
2023-01-06T05:21:41.557Z,59.28
2023-01-06T05:22:41.547Z,59.62
2023-01-06T05:23:41.533Z,61.01
2023-01-06T05:24:41.511Z,62.25
2023-01-06T05:25:41.498Z,65.54
2023-01-06T05:26:41.486Z,67.29
2023-01-06T05:27:41.486Z,69.83
2023-01-06T05:28:41.466Z,71.82
2023-01-06T05:29:41.450Z,74.06
2023-01-06T05:30:41.435Z,76.94
2023-01-06T05:31:41.584Z,76.94
2023-01-06T05:32:41.422Z,78.84
2023-01-06T05:33:41.414Z,78.25
2023-01-06T05:34:41.393Z,79.98
2023-01-06T05:35:41.377Z,78.17
2023-01-06T05:36:41.372Z,75.54
2023-01-06T05:37:41.361Z,75.07
2023-01-06T05:38:41.341Z,72.64
2023-01-06T05:39:41.327Z,73.15
2023-01-06T05:40:41.325Z,75.20
2023-01-06T05:41:41.292Z,75.13
2023-01-06T05:42:41.282Z,75.89
2023-01-06T05:43:41.366Z,74.46
2023-01-06T05:44:41.262Z,73.28
2023-01-06T05:45:41.284Z,72.64
2023-01-06T05:46:41.229Z,71.76
2023-01-06T05:47:41.222Z,72.26
2023-01-06T05:48:41.223Z,73.47
2023-01-06T05:49:41.192Z,73.80
2023-01-06T05:50:41.182Z,73.80
2023-01-06T05:51:41.173Z,73.86
2023-01-06T05:52:41.151Z,73.41
2023-01-06T05:53:41.155Z,74.73
2023-01-06T05:54:41.129Z,75.20
2023-01-06T05:55:41.115Z,73.80
2023-01-06T05:56:41.124Z,73.08
2023-01-06T05:57:41.120Z,72.89
2023-01-06T05:58:41.081Z,70.84
2023-01-06T05:59:41.067Z,69.71
2023-01-06T06:00:41.055Z,68.00
2023-01-06T06:01:41.072Z,67.84
2023-01-06T06:02:41.056Z,70.07
2023-01-06T06:03:41.050Z,71.76
2023-01-06T06:04:41.004Z,72.13
2023-01-06T06:05:40.991Z,73.28
2023-01-06T06:06:40.972Z,74.93
2023-01-06T06:07:40.975Z,76.73
2023-01-06T06:08:40.956Z,80.13
2023-01-06T06:09:40.935Z,82.11
2023-01-06T06:10:40.930Z,82.93
2023-01-06T06:11:40.913Z,84.27
2023-01-06T06:12:40.897Z,86.74
2023-01-06T06:13:40.903Z,88.96
2023-01-06T06:14:40.878Z,90.32
2023-01-06T06:15:40.862Z,90.71
2023-01-06T06:16:40.891Z,91.11
2023-01-06T06:17:40.847Z,92.74
2023-01-06T06:18:40.835Z,93.47
2023-01-06T06:19:40.845Z,93.89
2023-01-06T06:20:40.798Z,94.53
2023-01-06T06:21:40.792Z,93.99
2023-01-06T06:22:40.773Z,90.51
2023-01-06T06:23:40.759Z,87.74
2023-01-06T06:24:40.758Z,85.75
2023-01-06T06:25:40.727Z,84.36
2023-01-06T06:26:40.730Z,83.26
2023-01-06T06:27:40.706Z,82.85
2023-01-06T06:28:40.730Z,81.79
2023-01-06T06:29:40.699Z,81.47
2023-01-06T06:30:40.687Z,81.47
2023-01-06T06:31:40.708Z,82.52
2023-01-06T06:32:40.645Z,83.93
2023-01-06T06:33:40.650Z,86.29
2023-01-06T06:34:40.631Z,86.92
2023-01-06T06:35:40.606Z,90.12
2023-01-06T06:36:40.594Z,90.51
2023-01-06T06:37:40.589Z,89.83
2023-01-06T06:38:40.584Z,88.58
2023-01-06T06:39:40.569Z,85.14
2023-01-06T06:40:40.543Z,82.19
2023-01-06T06:41:40.526Z,81.63
2023-01-06T06:42:40.520Z,80.36
2023-01-06T06:43:40.503Z,81.23
2023-01-06T06:44:40.659Z,92.12
2023-01-06T06:45:40.524Z,94.89
2023-01-06T06:46:40.477Z,96.88
2023-01-06T06:47:40.449Z,99.73
2023-01-06T06:48:40.442Z,107.74
2023-01-06T06:49:40.425Z,113.40
2023-01-06T06:50:40.435Z,111.35
2023-01-06T06:51:40.424Z,109.81
2023-01-06T06:52:40.390Z,108.80
2023-01-06T06:53:40.371Z,105.15
2023-01-06T06:54:40.370Z,103.78
2023-01-06T06:55:40.356Z,97.34
2023-01-06T06:56:40.337Z,94.42
2023-01-06T06:57:40.324Z,94.42
2023-01-06T06:58:40.324Z,92.12
2023-01-06T06:59:40.300Z,87.10
2023-01-06T07:00:40.312Z,83.26
2023-01-06T07:01:40.374Z,82.52
2023-01-06T07:02:40.260Z,83.10
2023-01-06T07:03:40.255Z,82.60
2023-01-06T07:04:40.239Z,80.68
2023-01-06T07:05:40.233Z,78.76
2023-01-06T07:06:40.208Z,78.39
2023-01-06T07:07:40.193Z,81.39
2023-01-06T07:08:40.178Z,84.70
2023-01-06T07:09:40.165Z,83.93
2023-01-06T07:10:40.181Z,84.44
2023-01-06T07:11:40.142Z,86.56
2023-01-06T07:12:40.159Z,94.21
2023-01-06T07:13:40.125Z,94.35
2023-01-06T07:14:40.110Z,98.84
2023-01-06T07:15:40.134Z,99.43
2023-01-06T07:16:40.079Z,97.68
2023-01-06T07:17:40.069Z,98.84
2023-01-06T07:18:40.070Z,102.37
2023-01-06T07:19:40.044Z,104.30
2023-01-06T07:20:40.066Z,108.80
2023-01-06T07:21:40.009Z,110.46
2023-01-06T07:22:40.012Z,111.35
2023-01-06T07:23:39.999Z,111.95
2023-01-06T07:24:39.976Z,110.98
2023-01-06T07:25:39.969Z,110.17
2023-01-06T07:26:39.953Z,108.38
2023-01-06T07:27:39.936Z,103.26
2023-01-06T07:28:39.921Z,98.37
2023-01-06T07:29:39.905Z,96.32
2023-01-06T07:30:39.895Z,97.22
2023-01-06T07:31:39.899Z,99.49
2023-01-06T07:32:39.870Z,101.19
2023-01-06T07:33:39.850Z,100.70
2023-01-06T07:34:39.843Z,99.91
2023-01-06T07:35:39.831Z,98.43
2023-01-06T07:36:39.830Z,98.02
2023-01-06T07:37:39.815Z,97.34
2023-01-06T07:38:39.788Z,96.88
2023-01-06T07:39:39.784Z,96.88
2023-01-06T07:40:39.814Z,98.55
2023-01-06T07:41:39.760Z,98.66
2023-01-06T07:42:39.753Z,96.94
2023-01-06T07:43:39.725Z,96.15
2023-01-06T07:44:39.709Z,98.66
2023-01-06T07:45:39.736Z,103.65
2023-01-06T07:46:39.693Z,108.52
2023-01-06T07:47:39.667Z,113.40
2023-01-06T07:48:39.654Z,119.86
2023-01-06T07:49:39.650Z,123.70
2023-01-06T07:50:39.629Z,125.57
2023-01-06T07:51:39.633Z,131.42
2023-01-06T07:52:39.607Z,135.27
2023-01-06T07:53:39.599Z,140.77
2023-01-06T07:54:39.580Z,144.69
2023-01-06T07:55:39.567Z,147.12
2023-01-06T07:56:39.573Z,150.04
2023-01-06T07:57:39.551Z,146.35
2023-01-06T07:58:39.527Z,144.44
2023-01-06T07:59:39.516Z,143.44
2023-01-06T08:00:39.497Z,143.81
2023-01-06T08:01:39.613Z,146.35
2023-01-06T08:02:39.703Z,151.41
2023-01-06T08:03:39.459Z,157.43
2023-01-06T08:04:39.448Z,164.12
2023-01-06T08:05:39.436Z,166.58
2023-01-06T08:06:39.433Z,165.42
2023-01-06T08:07:39.420Z,158.79
2023-01-06T08:08:39.399Z,153.93
2023-01-06T08:09:39.385Z,153.93
2023-01-06T08:10:39.381Z,156.69
2023-01-06T08:11:39.360Z,161.25
2023-01-06T08:12:39.353Z,166.42
2023-01-06T08:13:39.329Z,166.08
2023-01-06T08:14:39.327Z,167.25
2023-01-06T08:15:39.364Z,166.25
2023-01-06T08:16:39.289Z,159.70
2023-01-06T08:17:39.294Z,154.51
2023-01-06T08:18:39.295Z,156.84
2023-01-06T08:19:39.259Z,162.51
2023-01-06T08:20:39.244Z,164.60
2023-01-06T08:21:39.226Z,165.42
2023-01-06T08:22:39.205Z,166.08
2023-01-06T08:23:39.292Z,168.27
2023-01-06T08:24:39.185Z,166.92
2023-01-06T08:25:39.176Z,163.79
2023-01-06T08:26:39.158Z,170.34
2023-01-06T08:27:39.150Z,173.54
2023-01-06T08:28:39.135Z,164.77
2023-01-06T08:29:39.129Z,165.09
2023-01-06T08:30:39.101Z,166.92
2023-01-06T08:31:39.125Z,167.25
2023-01-06T08:32:39.076Z,167.42
2023-01-06T08:33:39.074Z,164.77
2023-01-06T08:34:39.051Z,165.92
2023-01-06T08:35:39.055Z,169.12
2023-01-06T08:36:39.020Z,167.09
2023-01-06T08:37:39.031Z,157.58
2023-01-06T08:38:39.009Z,152.24
2023-01-06T08:39:38.990Z,151.27
2023-01-06T08:40:38.971Z,138.66
2023-01-06T08:41:38.965Z,139.12
2023-01-06T08:42:38.947Z,135.16
2023-01-06T08:43:38.940Z,141.73
2023-01-06T08:44:38.920Z,143.69
2023-01-06T08:45:38.932Z,147.12
2023-01-06T08:46:38.974Z,157.88
2023-01-06T08:47:38.887Z,165.92
2023-01-06T08:48:38.882Z,176.67
2023-01-06T08:49:38.872Z,185.75
2023-01-06T08:50:38.856Z,187.57
2023-01-06T08:51:38.840Z,197.07
2023-01-06T08:52:38.855Z,199.97
2023-01-06T08:53:38.813Z,200.34
2023-01-06T08:54:38.800Z,207.45
2023-01-06T08:55:38.799Z,214.68
2023-01-06T08:56:38.776Z,225.02
2023-01-06T08:57:38.761Z,240.41
2023-01-06T08:58:38.751Z,248.07
2023-01-06T08:59:38.746Z,231.55
2023-01-06T09:00:38.713Z,234.71
2023-01-06T09:01:38.812Z,256.24
2023-01-06T09:02:38.699Z,269.33
2023-01-06T09:03:38.701Z,270.44
2023-01-06T09:04:38.709Z,261.15
2023-01-06T09:05:38.664Z,248.83
2023-01-06T09:06:38.641Z,258.06
2023-01-06T09:07:38.626Z,253.26
2023-01-06T09:08:38.610Z,246.95
2023-01-06T09:09:38.610Z,245.28
2023-01-06T09:10:38.585Z,239.35
2023-01-06T09:11:38.609Z,240.76
2023-01-06T09:12:38.562Z,240.23
2023-01-06T09:13:38.597Z,241.12
2023-01-06T09:14:38.535Z,259.49
2023-01-06T09:15:38.523Z,264.75
2023-01-06T09:16:38.512Z,272.70
2023-01-06T09:17:38.502Z,277.33
2023-01-06T09:18:38.488Z,289.61
2023-01-06T09:19:38.496Z,298.88
2023-01-06T09:20:38.456Z,294.31
2023-01-06T09:21:38.448Z,282.36
2023-01-06T09:22:38.431Z,268.45
2023-01-06T09:23:38.416Z,275.23
2023-01-06T09:24:38.412Z,286.07
2023-01-06T09:25:38.392Z,264.11
2023-01-06T09:26:38.378Z,242.19
2023-01-06T09:27:38.363Z,255.44
2023-01-06T09:28:38.360Z,263.47
2023-01-06T09:29:38.359Z,248.64
2023-01-06T09:30:38.323Z,246.76
2023-01-06T09:31:38.380Z,270.89
2023-01-06T09:32:38.303Z,287.58
2023-01-06T09:33:38.311Z,296.98
2023-01-06T09:34:38.287Z,283.83
2023-01-06T09:35:38.272Z,280.42
2023-01-06T09:36:38.254Z,304.17
2023-01-06T09:37:38.257Z,324.07
2023-01-06T09:38:38.265Z,360.13
2023-01-06T09:39:38.251Z,348.23
2023-01-06T09:40:38.203Z,317.15
2023-01-06T09:41:38.193Z,335.03
2023-01-06T09:42:38.172Z,346.76
2023-01-06T09:43:38.172Z,326.01
2023-01-06T09:44:38.150Z,333.66
2023-01-06T09:45:38.157Z,337.80
2023-01-06T09:46:38.160Z,326.01
2023-01-06T09:47:38.111Z,324.39
2023-01-06T09:48:38.094Z,325.68
2023-01-06T09:49:38.087Z,319.32
2023-01-06T09:50:38.075Z,362.92
2023-01-06T09:51:38.070Z,382.90
2023-01-06T09:52:38.050Z,366.18
2023-01-06T09:53:38.165Z,355.81
2023-01-06T09:54:38.017Z,360.13
2023-01-06T09:55:38.022Z,372.86
2023-01-06T09:56:37.998Z,366.18
2023-01-06T09:57:37.991Z,339.20
2023-01-06T09:58:37.967Z,347.86
2023-01-06T09:59:37.965Z,374.57
2023-01-06T10:00:37.956Z,391.24
2023-01-06T10:01:38.003Z,417.30
2023-01-06T10:02:37.929Z,408.32
2023-01-06T10:03:37.961Z,400.20
2023-01-06T10:04:37.909Z,393.80
2023-01-06T10:05:37.896Z,408.57
2023-01-06T10:06:37.867Z,377.60
2023-01-06T10:07:37.858Z,378.47
2023-01-06T10:08:37.842Z,376.73
2023-01-06T10:09:37.833Z,392.86
2023-01-06T10:10:37.886Z,405.58
2023-01-06T10:11:37.807Z,411.86
2023-01-06T10:12:37.789Z,434.21
2023-01-06T10:13:37.776Z,449.18
2023-01-06T10:14:37.769Z,453.78
2023-01-06T10:15:37.806Z,455.65
2023-01-06T10:16:37.783Z,445.27
2023-01-06T10:17:37.734Z,442.30
2023-01-06T10:18:37.718Z,440.25
2023-01-06T10:19:37.710Z,418.08
2023-01-06T10:20:37.702Z,388.50
2023-01-06T10:21:37.722Z,390.79
2023-01-06T10:22:37.675Z,390.10
2023-01-06T10:23:37.695Z,393.33
2023-01-06T10:24:37.681Z,402.14
2023-01-06T10:25:37.637Z,388.50
2023-01-06T10:26:37.635Z,375.86
2023-01-06T10:27:37.629Z,374.14
2023-01-06T10:28:37.595Z,400.20
2023-01-06T10:29:37.584Z,391.48
2023-01-06T10:30:43.777Z,391.02
2023-01-06T10:31:37.629Z,395.20
2023-01-06T10:32:37.545Z,384.68
2023-01-06T10:33:37.540Z,376.29
2023-01-06T10:34:37.521Z,394.03
2023-01-06T10:35:37.515Z,404.34
2023-01-06T10:36:37.510Z,405.33
2023-01-06T10:37:37.483Z,404.83
2023-01-06T10:38:37.487Z,368.24
2023-01-06T10:39:37.459Z,373.71
2023-01-06T10:40:37.448Z,385.12
2023-01-06T10:41:37.453Z,378.03
2023-01-06T10:42:37.426Z,360.13
2023-01-06T10:43:37.412Z,376.29
2023-01-06T10:44:37.396Z,373.71
2023-01-06T10:45:37.394Z,385.79
2023-01-06T10:46:37.405Z,375.00
2023-01-06T10:47:37.370Z,380.71
2023-01-06T10:48:37.358Z,393.33
2023-01-06T10:49:37.346Z,388.50
2023-01-06T10:50:37.325Z,405.08
2023-01-06T10:51:37.329Z,399.96
2023-01-06T10:52:37.305Z,417.03
2023-01-06T10:53:37.285Z,415.99
2023-01-06T10:54:37.272Z,425.31
2023-01-06T10:55:37.267Z,422.87
2023-01-06T10:56:37.269Z,406.07
2023-01-06T10:57:37.286Z,361.72
2023-01-06T10:58:37.254Z,351.98
2023-01-06T10:59:37.214Z,366.59
2023-01-06T11:00:37.269Z,361.72
2023-01-06T11:01:37.489Z,359.33
2023-01-06T11:02:37.280Z,347.12
2023-01-06T11:03:37.289Z,342.04
2023-01-06T11:04:37.153Z,308.76
2023-01-06T11:05:37.143Z,296.44
2023-01-06T11:06:37.140Z,308.18
2023-01-06T11:07:37.178Z,306.73
2023-01-06T11:08:37.113Z,316.84
2023-01-06T11:09:37.087Z,327.97
2023-01-06T11:10:37.076Z,311.41
2023-01-06T11:11:37.065Z,291.42
2023-01-06T11:12:37.053Z,282.85
2023-01-06T11:13:37.054Z,267.35
2023-01-06T11:14:37.033Z,264.32
2023-01-06T11:15:37.021Z,282.60
2023-01-06T11:16:37.230Z,282.36
2023-01-06T11:17:36.998Z,275.92
2023-01-06T11:18:36.984Z,305.59
2023-01-06T11:19:36.967Z,310.82
2023-01-06T11:20:36.973Z,325.36
2023-01-06T11:21:36.955Z,335.72
2023-01-06T11:22:36.940Z,351.60
2023-01-06T11:23:37.347Z,355.43
2023-01-06T11:24:36.907Z,369.91
2023-01-06T11:25:36.894Z,378.91
2023-01-06T11:26:36.881Z,385.79
2023-01-06T11:27:36.870Z,382.68
2023-01-06T11:28:36.867Z,369.49
2023-01-06T11:29:36.849Z,365.36
2023-01-06T11:30:36.834Z,374.14
2023-01-06T11:31:36.895Z,373.71
2023-01-06T11:32:36.807Z,341.68
2023-01-06T11:33:36.807Z,356.59
2023-01-06T11:34:36.781Z,369.49
2023-01-06T11:35:36.780Z,382.46
2023-01-06T11:36:36.756Z,382.24
2023-01-06T11:37:36.749Z,384.68
2023-01-06T11:38:36.732Z,387.82
2023-01-06T11:39:36.751Z,388.95
2023-01-06T11:40:36.717Z,378.03
2023-01-06T11:41:36.698Z,358.55
2023-01-06T11:42:36.691Z,366.18
2023-01-06T11:43:36.680Z,342.76
2023-01-06T11:44:36.675Z,327.31
2023-01-06T11:45:36.754Z,326.98
2023-01-06T11:46:36.642Z,341.32
2023-01-06T11:47:36.661Z,355.43
2023-01-06T11:48:36.613Z,362.92
2023-01-06T11:49:36.622Z,362.52
2023-01-06T11:50:36.604Z,365.36
2023-01-06T11:51:36.580Z,360.92
2023-01-06T11:52:36.597Z,368.65
2023-01-06T11:53:36.560Z,366.59
2023-01-06T11:54:36.568Z,369.91
2023-01-06T11:55:36.531Z,367.41
2023-01-06T11:56:36.523Z,338.50
2023-01-06T11:57:36.505Z,307.60
2023-01-06T11:58:36.538Z,304.45
2023-01-06T11:59:36.503Z,309.64
2023-01-06T12:00:36.477Z,321.83
2023-01-06T12:01:36.556Z,344.93
2023-01-06T12:02:43.648Z,353.12
2023-01-06T12:03:36.489Z,361.72
2023-01-06T12:04:36.441Z,374.14
2023-01-06T12:05:36.409Z,369.49
2023-01-06T12:06:36.412Z,371.17
2023-01-06T12:07:36.392Z,361.72
2023-01-06T12:08:36.407Z,352.74
2023-01-06T12:09:36.379Z,347.12
2023-01-06T12:10:36.355Z,369.07
2023-01-06T12:11:36.358Z,368.24
2023-01-06T12:12:36.376Z,377.16
2023-01-06T12:13:44.500Z,358.15
2023-01-06T12:14:36.380Z,355.43
2023-01-06T12:15:36.303Z,354.66
2023-01-06T12:16:36.487Z,372.86
2023-01-06T12:17:36.409Z,375.00
2023-01-06T12:18:36.283Z,387.82
2023-01-06T12:19:36.290Z,399.48
2023-01-06T12:20:36.236Z,396.38
2023-01-06T12:21:36.216Z,411.10
2023-01-06T12:22:36.214Z,400.68
2023-01-06T12:23:36.195Z,375.00
2023-01-06T12:24:36.186Z,390.79
2023-01-06T12:25:36.197Z,386.02
2023-01-06T12:26:36.156Z,351.23
2023-01-06T12:27:36.152Z,348.98
2023-01-06T12:28:36.142Z,369.07
2023-01-06T12:29:36.124Z,368.24
2023-01-06T12:30:36.200Z,386.24
2023-01-06T12:31:36.112Z,415.47
2023-01-06T12:32:36.089Z,418.08
2023-01-06T12:33:36.083Z,429.71
2023-01-06T12:34:36.062Z,396.86
2023-01-06T12:35:36.070Z,409.33
2023-01-06T12:36:36.034Z,422.61
2023-01-06T12:37:36.030Z,420.73
2023-01-06T12:38:36.009Z,411.86
2023-01-06T12:39:36.005Z,400.68
2023-01-06T12:40:36.026Z,402.14
2023-01-06T12:41:35.971Z,404.34
2023-01-06T12:42:35.972Z,426.13